Tappahannock, VA

7:33 AM EDT on July 03, 2015 (GMT -0400)
Tappahannock | | Change Station
CLOSE
Current Station
Airport
Location: Tappahannock,
Elevation: 135 ft
Nearby Weather Stations

Elev 135 ft 37.86 °N, 76.90 °W | Updated 18 minutes ago

Fog
Fog
64 °F
Feels Like 64 °F
N
0
Wind Variable Wind from North

Today
High -- | Low -- °F
--% Chance of Precip.
Yesterday
High -- | Low -- °F
Precip. -- in
5:49 AM 8:33 PM
Full, 97% visible
Pressure 29.97 in
Visibility 3.0 miles
Clouds Clear
Dew Point 61 °F
Humidity 90%
Rainfall 0.00 in
Snow Depth Not available.
UV 1 out of 12
Pollen .50 out of 12
Air Quality Not available.
Flu Activity Not available.
METAR KXSA 031115Z AUTO 00000KT 3SM BR CLR 18/16 A2997 RMK AO2 T01760160

More Conditions Fewer Conditions

Pressure 29.97 in
Visibility 3.0 miles
Clouds Clear
Dew Point 61 °F
Humidity 90%
Rainfall 0.00 in
Snow Depth Not available.
UV 1 out of 12
Pollen .50 out of 12
Air Quality Not available.
Flu Activity Not available.
METAR KXSA 031115Z AUTO 00000KT 3SM BR CLR 18/16 A2997 RMK AO2 T01760160

More Conditions Fewer Conditions

10-Day Weather Forecast

×

Almanac

Astronomy

Jul. 03, 2015 Rise Set
Actual Time
Civil Twilight
Nautical Twilight
Astronomical Twilight
Moon
Length of Visible Light
Length of Day
Tomorrow will be .
, % of the Moon is Illuminated

Today's Extremes

State Highs State Lows

Community

WunderPhotos

Upload Photos

1,834,656 photos uploaded!

WunderBlogs® & News

Nearby

Air Quality

  Air Quality AQ Index Pollutant
Not available.

Snow Depth

Station Depth Elevation

Earthquake Activity

City Distance Mag. Time & Date
Minimum magnitude displayed is 2.5.

Coastal Water Temperatures

Place Temperature

Stations

Nearby Weather Stations

Station Location Temp. Windchill Dew Point Humidity Wind Precip. Elev Updated Type